createdAt,value
2023-02-08T00:01:25.901Z,-23506.06
2023-02-08T00:08:15.249Z,-23503.80
2023-02-08T00:10:43.962Z,-23501.26
2023-02-08T00:13:12.397Z,-23500.37
2023-02-08T00:15:44.959Z,-23499.77
2023-02-08T00:18:15.408Z,-23499.29
2023-02-08T00:20:43.730Z,-23499.01
2023-02-08T00:23:12.837Z,-23498.25
2023-02-08T00:25:41.446Z,-23497.20
2023-02-08T00:28:13.790Z,-23496.53
2023-02-08T00:30:43.683Z,-23495.99
2023-02-08T00:33:12.225Z,-23495.51
2023-02-08T00:35:42.485Z,-23495.01
2023-02-08T00:38:10.733Z,-23494.72
2023-02-08T00:40:39.502Z,-23493.61
2023-02-08T00:43:08.119Z,-23492.30
2023-02-08T00:45:36.877Z,-23492.11
2023-02-08T00:48:05.092Z,-23492.27
2023-02-08T00:50:33.377Z,-23491.80
2023-02-08T00:53:01.832Z,-23491.16
2023-02-08T00:55:30.097Z,-23490.27
2023-02-08T00:57:58.987Z,-23489.73
2023-02-08T01:00:27.222Z,-23489.77
2023-02-08T01:02:55.453Z,-23489.32
2023-02-08T01:05:23.669Z,-23488.71
2023-02-08T01:07:51.955Z,-23487.54
2023-02-08T01:10:20.094Z,-23486.59
2023-02-08T01:12:49.988Z,-23486.08
2023-02-08T01:15:18.348Z,-23485.57
2023-02-08T01:17:46.651Z,-23485.60
2023-02-08T01:20:16.590Z,-23485.16
2023-02-08T01:22:45.133Z,-23484.75
2023-02-08T01:25:15.855Z,-23484.71
2023-02-08T01:27:44.557Z,-23484.62
2023-02-08T01:30:14.214Z,-23484.49
2023-02-08T01:32:43.275Z,-23484.17
2023-02-08T01:35:11.426Z,-23483.54
2023-02-08T01:37:39.715Z,-23483.09
2023-02-08T01:40:08.233Z,-23483.00
2023-02-08T01:42:37.046Z,-23482.65
2023-02-08T01:45:23.821Z,-23482.08
2023-02-08T01:48:03.625Z,-23481.44
2023-02-08T01:50:36.863Z,-23479.91
2023-02-08T01:53:05.043Z,-23478.80
2023-02-08T01:55:36.157Z,-23478.23
2023-02-08T01:58:05.952Z,-23477.25
2023-02-08T02:00:34.611Z,-23475.95
2023-02-08T02:03:02.818Z,-23475.34
2023-02-08T02:05:39.918Z,-23474.80
2023-02-08T02:08:09.374Z,-23473.98
2023-02-08T02:10:38.493Z,-23473.79
2023-02-08T02:13:12.277Z,-23473.72
2023-02-08T02:15:44.686Z,-23473.15
2023-02-08T02:18:14.365Z,-23472.96
2023-02-08T02:21:14.924Z,-23473.06
2023-02-08T02:24:05.554Z,-23472.61
2023-02-08T02:27:02.965Z,-23471.85
2023-02-08T02:29:40.161Z,-23471.66
2023-02-08T02:32:17.409Z,-23472.01
2023-02-08T02:35:10.808Z,-23472.20
2023-02-08T02:37:43.561Z,-23471.79
2023-02-08T02:40:45.571Z,-23471.60
2023-02-08T02:43:41.523Z,-23471.34
2023-02-08T02:46:48.980Z,-23471.05
2023-02-08T02:49:17.124Z,-23470.96
2023-02-08T02:51:57.889Z,-23471.21
2023-02-08T02:54:44.156Z,-23470.99
2023-02-08T02:57:15.116Z,-23470.99
2023-02-08T02:59:45.388Z,-23470.51
2023-02-08T03:02:14.061Z,-23470.01
2023-02-08T03:04:42.480Z,-23469.79
2023-02-08T03:07:19.990Z,-23470.04
2023-02-08T03:09:54.121Z,-23469.46
2023-02-08T03:12:22.360Z,-23468.99
2023-02-08T03:15:11.373Z,-23468.55
2023-02-08T03:18:21.685Z,-23468.04
2023-02-08T03:20:58.722Z,-23467.46
2023-02-08T03:23:41.188Z,-23466.57
2023-02-08T03:26:31.181Z,-23466.42
2023-02-08T03:29:23.493Z,-23466.64
2023-02-08T03:32:01.323Z,-23466.38
2023-02-08T03:34:46.440Z,-23465.71
2023-02-08T03:37:20.063Z,-23464.38
2023-02-08T03:39:49.754Z,-23463.08
2023-02-08T03:42:21.863Z,-23461.87
2023-02-08T03:44:59.276Z,-23461.01
2023-02-08T03:47:29.287Z,-23460.47
2023-02-08T03:49:59.373Z,-23459.83
2023-02-08T03:52:28.663Z,-23459.07
2023-02-08T03:55:06.176Z,-23458.75
2023-02-08T03:57:48.494Z,-23458.47
2023-02-08T04:00:17.389Z,-23458.02
2023-02-08T04:02:56.159Z,-23457.42
2023-02-08T04:05:24.372Z,-23457.01
2023-02-08T04:07:53.212Z,-23456.59
2023-02-08T04:10:21.412Z,-23456.59
2023-02-08T04:12:50.144Z,-23456.08
2023-02-08T04:15:18.514Z,-23455.16
2023-02-08T04:17:47.394Z,-23454.17
2023-02-08T04:20:15.701Z,-23453.44
2023-02-08T04:22:47.032Z,-23452.90
2023-02-08T04:25:15.328Z,-23452.46
2023-02-08T04:27:43.580Z,-23452.01
2023-02-08T04:30:12.341Z,-23451.18
2023-02-08T04:32:42.816Z,-23450.83
2023-02-08T04:35:10.943Z,-23450.52
2023-02-08T04:37:39.124Z,-23450.45
2023-02-08T04:40:07.646Z,-23450.77
2023-02-08T04:42:35.839Z,-23450.61
2023-02-08T04:45:04.066Z,-23450.01
2023-02-08T04:47:32.914Z,-23449.40
2023-02-08T04:50:01.363Z,-23449.05
2023-02-08T04:52:30.255Z,-23448.68
2023-02-08T04:54:58.607Z,-23448.48
2023-02-08T04:57:26.780Z,-23447.91
2023-02-08T04:59:55.474Z,-23447.24
2023-02-08T05:02:23.562Z,-23446.93
2023-02-08T05:04:51.735Z,-23446.57
2023-02-08T05:07:19.896Z,-23445.65
2023-02-08T05:09:47.968Z,-23445.21
2023-02-08T05:12:19.124Z,-23444.89
2023-02-08T05:14:47.549Z,-23445.08
2023-02-08T05:17:15.766Z,-23445.30
2023-02-08T05:19:44.235Z,-23445.43
2023-02-08T05:22:12.521Z,-23444.89
2023-02-08T05:24:41.283Z,-23444.80
2023-02-08T05:27:09.552Z,-23444.57
2023-02-08T05:29:38.025Z,-23444.76
2023-02-08T05:32:06.785Z,-23444.77
2023-02-08T05:34:37.572Z,-23444.13
2023-02-08T05:37:06.085Z,-23443.33
2023-02-08T05:39:34.254Z,-23442.79
2023-02-08T05:42:02.319Z,-23442.72
2023-02-08T05:44:31.091Z,-23443.04
2023-02-08T05:46:59.279Z,-23443.04
2023-02-08T05:49:27.438Z,-23442.91
2023-02-08T05:51:55.831Z,-23442.41
2023-02-08T05:54:24.043Z,-23442.06
2023-02-08T05:56:52.375Z,-23441.71
2023-02-08T05:59:20.699Z,-23441.83
2023-02-08T06:01:49.522Z,-23441.55
2023-02-08T06:04:17.680Z,-23441.39
2023-02-08T06:06:45.906Z,-23441.39
2023-02-08T06:09:15.512Z,-23441.36
2023-02-08T06:11:44.094Z,-23441.68
2023-02-08T06:14:14.003Z,-23441.71
2023-02-08T06:16:42.588Z,-23441.29
2023-02-08T06:19:10.909Z,-23441.58
2023-02-08T06:21:39.229Z,-23442.28
2023-02-08T06:24:07.595Z,-23442.85
2023-02-08T06:26:35.957Z,-23443.96
2023-02-08T06:29:04.707Z,-23444.76
2023-02-08T06:31:33.405Z,-23445.14
2023-02-08T06:34:01.880Z,-23445.24
2023-02-08T06:36:30.249Z,-23445.87
2023-02-08T06:38:58.482Z,-23446.10
2023-02-08T06:41:27.343Z,-23446.48
2023-02-08T06:43:55.499Z,-23446.61
2023-02-08T06:46:23.612Z,-23446.70
2023-02-08T06:48:52.032Z,-23447.08
2023-02-08T06:51:20.572Z,-23447.37
2023-02-08T06:53:49.185Z,-23447.81
2023-02-08T06:56:17.738Z,-23448.80
2023-02-08T06:58:46.239Z,-23449.72
2023-02-08T07:01:14.763Z,-23450.55
2023-02-08T07:03:43.709Z,-23451.44
2023-02-08T07:06:13.664Z,-23453.29
2023-02-08T07:08:42.339Z,-23454.49
2023-02-08T07:11:15.537Z,-23454.91
2023-02-08T07:13:47.754Z,-23455.29
2023-02-08T07:16:16.106Z,-23454.97
2023-02-08T07:18:44.292Z,-23455.00
2023-02-08T07:21:12.430Z,-23455.86
2023-02-08T07:23:41.495Z,-23457.68
2023-02-08T07:26:12.108Z,-23459.23
2023-02-08T07:28:40.775Z,-23460.95
2023-02-08T07:31:10.440Z,-23462.09
2023-02-08T07:33:38.825Z,-23462.82
2023-02-08T07:36:07.713Z,-23464.47
2023-02-08T07:38:36.552Z,-23465.87
2023-02-08T07:41:08.983Z,-23466.13
2023-02-08T07:43:38.480Z,-23466.06
2023-02-08T07:46:11.053Z,-23466.76
2023-02-08T07:48:40.446Z,-23468.38
2023-02-08T07:51:09.070Z,-23469.97
2023-02-08T07:53:38.773Z,-23471.79
2023-02-08T07:56:07.233Z,-23473.25
2023-02-08T07:58:35.999Z,-23474.93
2023-02-08T08:01:19.726Z,-23477.03
2023-02-08T08:03:51.003Z,-23479.21
2023-02-08T08:06:20.348Z,-23481.41
2023-02-08T08:08:49.926Z,-23483.60
2023-02-08T08:11:18.574Z,-23485.70
2023-02-08T08:13:47.965Z,-23487.67
2023-02-08T08:16:16.642Z,-23489.61
2023-02-08T08:18:49.584Z,-23491.92
2023-02-08T08:21:18.049Z,-23494.69
2023-02-08T08:23:46.240Z,-23497.26
2023-02-08T08:26:16.645Z,-23499.23
2023-02-08T08:28:46.893Z,-23501.23
2023-02-08T08:31:17.408Z,-23503.55
2023-02-08T08:33:45.975Z,-23505.96
2023-02-08T08:36:14.445Z,-23508.12
2023-02-08T08:38:43.137Z,-23510.12
2023-02-08T08:41:12.928Z,-23511.61
2023-02-08T08:43:41.992Z,-23512.76
2023-02-08T08:46:10.392Z,-23513.90
2023-02-08T08:48:39.213Z,-23515.01
2023-02-08T08:51:07.718Z,-23516.47
2023-02-08T08:53:37.293Z,-23518.56
2023-02-08T08:56:06.750Z,-23520.76
2023-02-08T08:58:34.947Z,-23523.13
2023-02-08T09:01:03.681Z,-23525.04
2023-02-08T09:03:32.007Z,-23527.17
2023-02-08T09:06:00.426Z,-23529.23
2023-02-08T09:08:29.119Z,-23531.71
2023-02-08T09:10:57.881Z,-23534.72
2023-02-08T09:13:26.143Z,-23537.41
2023-02-08T09:15:54.845Z,-23539.63
2023-02-08T09:18:23.015Z,-23541.82
2023-02-08T09:20:51.298Z,-23543.70
2023-02-08T09:23:19.465Z,-23545.00
2023-02-08T09:25:49.842Z,-23546.74
2023-02-08T09:28:18.408Z,-23548.77
2023-02-08T09:30:46.698Z,-23550.26
2023-02-08T09:33:15.132Z,-23551.97
2023-02-08T09:35:43.441Z,-23554.25
2023-02-08T09:38:11.865Z,-23556.72
2023-02-08T09:40:48.686Z,-23559.13
2023-02-08T09:43:24.719Z,-23561.93
2023-02-08T09:46:01.683Z,-23564.40
2023-02-08T09:48:35.130Z,-23566.62
2023-02-08T09:51:09.101Z,-23568.42
2023-02-08T09:54:03.450Z,-23570.42
2023-02-08T09:56:40.405Z,-23572.32
2023-02-08T09:59:29.837Z,-23574.00
2023-02-08T10:02:23.704Z,-23576.60
2023-02-08T10:05:00.023Z,-23579.83
2023-02-08T10:07:28.839Z,-23582.27
2023-02-08T10:09:58.954Z,-23584.87
2023-02-08T10:12:37.201Z,-23586.55
2023-02-08T10:15:08.727Z,-23588.13
2023-02-08T10:17:58.140Z,-23590.13
2023-02-08T10:20:32.721Z,-23592.57
2023-02-08T10:23:29.471Z,-23594.31
2023-02-08T10:26:10.207Z,-23595.99
2023-02-08T10:29:06.200Z,-23598.11
2023-02-08T10:32:08.485Z,-23600.49
2023-02-08T10:34:59.028Z,-23602.55
2023-02-08T10:37:34.654Z,-23603.88
2023-02-08T10:40:16.900Z,-23605.11
2023-02-08T10:42:47.661Z,-23606.57
2023-02-08T10:45:29.597Z,-23608.53
2023-02-08T10:48:03.443Z,-23609.70
2023-02-08T10:50:38.341Z,-23611.16
2023-02-08T10:53:06.633Z,-23612.78
2023-02-08T10:55:36.577Z,-23614.52
2023-02-08T10:58:14.429Z,-23616.73
2023-02-08T11:00:43.104Z,-23618.15
2023-02-08T11:03:28.569Z,-23619.64
2023-02-08T11:05:57.397Z,-23620.46
2023-02-08T11:08:27.922Z,-23621.26
2023-02-08T11:11:07.491Z,-23622.74
2023-02-08T11:13:40.516Z,-23624.99
2023-02-08T11:16:27.155Z,-23627.18
2023-02-08T11:18:59.486Z,-23628.82
2023-02-08T11:21:40.480Z,-23629.96
2023-02-08T11:24:15.229Z,-23631.48
2023-02-08T11:26:43.446Z,-23632.96
2023-02-08T11:29:16.594Z,-23633.76
2023-02-08T11:32:02.423Z,-23634.48
2023-02-08T11:34:35.777Z,-23635.24
2023-02-08T11:37:05.453Z,-23634.83
2023-02-08T11:39:40.164Z,-23633.85
2023-02-08T11:42:09.773Z,-23633.88
2023-02-08T11:44:42.505Z,-23633.41
2023-02-08T11:47:11.052Z,-23633.00
2023-02-08T11:49:41.209Z,-23632.93
2023-02-08T11:52:20.222Z,-23633.13
2023-02-08T11:54:48.562Z,-23633.13
2023-02-08T11:57:24.847Z,-23633.06
2023-02-08T11:59:53.007Z,-23633.69
2023-02-08T12:02:24.471Z,-23634.04
2023-02-08T12:04:52.649Z,-23634.77
2023-02-08T12:07:45.440Z,-23635.37
2023-02-08T12:10:19.134Z,-23635.47
2023-02-08T12:13:06.003Z,-23634.74
2023-02-08T12:15:57.391Z,-23634.71
2023-02-08T12:18:30.271Z,-23634.55
2023-02-08T12:21:11.552Z,-23635.02
2023-02-08T12:23:59.030Z,-23635.53
2023-02-08T12:26:37.566Z,-23635.81
2023-02-08T12:29:33.166Z,-23636.10
2023-02-08T12:32:30.823Z,-23635.75
2023-02-08T12:35:43.606Z,-23636.10
2023-02-08T12:38:38.383Z,-23635.79
2023-02-08T12:41:27.919Z,-23635.28
2023-02-08T12:44:02.411Z,-23635.24
2023-02-08T12:47:03.796Z,-23635.81
2023-02-08T12:49:51.168Z,-23636.51
2023-02-08T12:52:29.344Z,-23637.24
2023-02-08T12:55:06.451Z,-23638.03
2023-02-08T12:57:34.693Z,-23638.37
2023-02-08T13:00:21.414Z,-23638.38
2023-02-08T13:03:14.694Z,-23638.09
2023-02-08T13:05:53.472Z,-23637.14
2023-02-08T13:08:59.369Z,-23637.27
2023-02-08T16:22:16.778Z,-23606.44
2023-02-08T16:24:47.848Z,-23606.06
2023-02-08T16:27:26.475Z,-23605.91
2023-02-08T16:29:54.981Z,-23605.39
2023-02-08T16:32:30.053Z,-23605.14
2023-02-08T16:34:58.207Z,-23604.67
2023-02-08T16:37:31.004Z,-23604.26
2023-02-08T16:39:59.798Z,-23603.34
2023-02-08T16:42:36.940Z,-23602.52
2023-02-08T16:45:07.784Z,-23601.85
2023-02-08T16:47:36.823Z,-23601.72
2023-02-08T16:50:08.821Z,-23602.01
2023-02-08T16:52:37.508Z,-23602.20
2023-02-08T16:55:06.215Z,-23602.42
2023-02-08T16:57:51.247Z,-23602.48
2023-02-08T17:00:24.943Z,-23602.52
2023-02-08T17:02:53.574Z,-23602.61
2023-02-08T17:05:22.782Z,-23602.90
2023-02-08T17:07:51.146Z,-23602.83
2023-02-08T17:10:28.928Z,-23603.27
2023-02-08T17:13:13.248Z,-23603.02
2023-02-08T17:15:47.510Z,-23602.89
2023-02-08T17:18:16.028Z,-23602.86
2023-02-08T17:20:45.283Z,-23603.05
2023-02-08T17:23:15.653Z,-23603.28
2023-02-08T17:25:44.225Z,-23603.43
2023-02-08T17:28:16.192Z,-23603.85
2023-02-08T17:30:44.862Z,-23604.04
2023-02-08T17:33:18.635Z,-23604.35
2023-02-08T17:35:49.473Z,-23604.42
2023-02-08T17:38:18.820Z,-23604.76
2023-02-08T17:40:47.185Z,-23605.08
2023-02-08T17:43:15.474Z,-23605.17
2023-02-08T17:45:44.846Z,-23605.17
2023-02-08T17:48:16.095Z,-23605.53
2023-02-08T17:50:48.020Z,-23605.65
2023-02-08T17:53:17.372Z,-23605.53
2023-02-08T17:55:45.938Z,-23605.53
2023-02-08T17:58:15.370Z,-23605.30
2023-02-08T18:00:43.844Z,-23605.02
2023-02-08T18:03:12.609Z,-23604.98
2023-02-08T18:05:40.741Z,-23604.60
2023-02-08T18:08:08.928Z,-23604.42
2023-02-08T18:10:37.142Z,-23604.20
2023-02-08T18:13:05.625Z,-23604.07
2023-02-08T18:15:34.173Z,-23603.97
2023-02-08T18:18:02.326Z,-23603.72
2023-02-08T18:20:30.605Z,-23603.28
2023-02-08T18:22:58.965Z,-23602.93
2023-02-08T18:25:27.370Z,-23602.45
2023-02-08T18:27:56.421Z,-23601.72
2023-02-08T18:30:26.285Z,-23600.71
2023-02-08T18:32:54.557Z,-23599.86
2023-02-08T18:35:23.139Z,-23599.22
2023-02-08T18:37:53.596Z,-23598.68
2023-02-08T18:40:21.850Z,-23597.96
2023-02-08T18:42:50.068Z,-23597.38
2023-02-08T18:45:18.189Z,-23597.00
2023-02-08T18:47:46.965Z,-23596.62
2023-02-08T18:50:15.265Z,-23596.43
2023-02-08T18:52:45.147Z,-23596.43
2023-02-08T18:55:13.601Z,-23596.72
2023-02-08T18:57:41.990Z,-23596.88
2023-02-08T19:00:11.076Z,-23596.94
2023-02-08T19:02:39.857Z,-23596.84
2023-02-08T19:05:08.306Z,-23596.78
2023-02-08T19:07:39.505Z,-23596.62
2023-02-08T19:10:08.249Z,-23596.21
2023-02-08T19:12:39.087Z,-23596.09
2023-02-08T19:15:08.010Z,-23596.12
2023-02-08T19:17:36.217Z,-23595.90
2023-02-08T19:20:04.713Z,-23595.74
2023-02-08T19:22:32.940Z,-23595.58
2023-02-08T19:25:01.179Z,-23595.71
2023-02-08T19:27:29.994Z,-23595.87
2023-02-08T19:29:58.541Z,-23596.43
2023-02-08T19:32:26.913Z,-23596.46
2023-02-08T19:34:55.268Z,-23596.88
2023-02-08T19:37:23.505Z,-23597.16
2023-02-08T19:39:51.600Z,-23597.45
2023-02-08T19:42:19.786Z,-23597.51
2023-02-08T19:44:47.939Z,-23597.38
2023-02-08T19:47:16.593Z,-23597.36
2023-02-08T19:49:45.279Z,-23597.32
2023-02-08T19:52:16.278Z,-23597.29
2023-02-08T19:54:44.881Z,-23597.23
2023-02-08T19:57:14.967Z,-23597.19
2023-02-08T19:59:43.607Z,-23596.94
2023-02-08T20:02:15.429Z,-23596.72
2023-02-08T20:04:44.121Z,-23596.43
2023-02-08T20:07:12.676Z,-23596.40
2023-02-08T20:09:41.736Z,-23596.43
2023-02-08T20:12:10.019Z,-23596.34
2023-02-08T20:14:38.367Z,-23596.34
2023-02-08T20:17:07.333Z,-23596.31
2023-02-08T20:19:37.292Z,-23595.93
2023-02-08T20:22:05.454Z,-23595.68
2023-02-08T20:24:33.699Z,-23595.26
2023-02-08T20:27:02.019Z,-23594.57
2023-02-08T20:29:30.903Z,-23593.74
2023-02-08T20:31:59.923Z,-23593.20
2023-02-08T20:34:28.698Z,-23592.82
2023-02-08T20:37:12.411Z,-23592.54
2023-02-08T20:39:41.214Z,-23592.42
2023-02-08T20:42:10.233Z,-23592.19
2023-02-08T20:44:38.464Z,-23591.62
2023-02-08T20:47:06.886Z,-23590.04
2023-02-08T20:49:35.291Z,-23588.48
2023-02-08T20:52:03.494Z,-23587.37
2023-02-08T20:54:31.803Z,-23586.58
2023-02-08T20:57:00.844Z,-23585.57
2023-02-08T20:59:30.361Z,-23584.90
2023-02-08T21:01:59.062Z,-23584.21
2023-02-08T21:04:30.248Z,-23583.76
2023-02-08T21:06:58.427Z,-23583.32
2023-02-08T21:09:26.677Z,-23582.69
2023-02-08T21:11:54.851Z,-23582.05
2023-02-08T21:14:23.637Z,-23581.61
2023-02-08T21:16:56.518Z,-23581.14
2023-02-08T21:19:29.347Z,-23580.47
2023-02-08T21:22:01.349Z,-23579.74
2023-02-08T21:24:29.741Z,-23578.98
2023-02-08T21:26:58.065Z,-23578.19
2023-02-08T21:29:26.497Z,-23577.78
2023-02-08T21:31:56.418Z,-23577.30
2023-02-08T21:34:24.788Z,-23576.76
2023-02-08T21:36:53.261Z,-23576.54
2023-02-08T21:39:23.341Z,-23576.32
2023-02-08T21:41:52.135Z,-23575.94
2023-02-08T21:44:20.354Z,-23575.52
2023-02-08T21:46:48.563Z,-23575.46
2023-02-08T21:49:35.549Z,-23575.43
2023-02-08T21:52:22.439Z,-23575.27
2023-02-08T21:54:53.745Z,-23574.98
2023-02-08T21:57:22.634Z,-23574.80
2023-02-08T21:59:52.488Z,-23574.77
2023-02-08T22:02:24.713Z,-23574.51
2023-02-08T22:04:53.946Z,-23574.67
2023-02-08T22:07:23.024Z,-23574.54
